Time;durP1;ratioP1;P1;durP2;ratioP2;P2;SDS_P1;SDS_P2;PMS_P1;PMS_P2;Temp;Humidity;BMP_temperature;BMP_pressure;BME280_temperature;BME280_humidity;BME280_pressure;Samples;Min_cycle;Max_cycle;Signal;HPM_P1;HPM_P2
2023/01/15 00:01:15;;;;;;;6.25;2.08;;;;;;;7.21;100.00;99696.19;4997836;28;20209;-60
2023/01/15 00:03:40;;;;;;;10.48;2.72;;;;;;;6.70;100.00;99610.88;5014055;28;20040;-62
2023/01/15 00:06:05;;;;;;;16.98;2.83;;;;;;;7.16;100.00;99699.00;5015310;28;20038;-63
2023/01/15 00:08:31;;;;;;;11.85;2.83;;;;;;;6.71;100.00;99635.28;5015286;28;20050;-62
2023/01/15 00:10:56;;;;;;;12.50;2.10;;;;;;;7.13;100.00;99691.25;5014946;28;20033;-62
2023/01/15 00:13:21;;;;;;;12.80;3.50;;;;;;;7.09;100.00;99691.44;5015256;28;20088;-62
2023/01/15 00:15:47;;;;;;;14.40;2.90;;;;;;;7.06;100.00;99681.94;5013880;28;20033;-60
2023/01/15 00:18:12;;;;;;;9.02;2.45;;;;;;;6.74;100.00;99611.63;5014983;28;20046;-61
2023/01/15 00:20:37;;;;;;;11.48;2.25;;;;;;;7.17;100.00;99681.53;5014805;28;20034;-60
2023/01/15 00:23:03;;;;;;;14.02;2.45;;;;;;;7.15;100.00;99680.75;5014964;28;20125;-61
2023/01/15 00:28:13;;;;;;;11.45;2.40;;;;;;;7.11;100.00;99687.84;5014647;28;20096;-62
2023/01/15 00:30:41;;;;;;;9.95;2.92;;;;;;;7.17;100.00;99710.31;5014553;28;20477;-63
2023/01/15 00:33:07;;;;;;;12.85;2.78;;;;;;;7.15;100.00;99696.44;4997385;28;20042;-63
2023/01/15 00:35:32;;;;;;;11.50;2.92;;;;;;;7.12;100.00;99694.78;5014335;28;20091;-62
2023/01/15 00:37:59;;;;;;;16.52;3.25;;;;;;;7.11;100.00;99687.84;5014982;28;20162;-62
2023/01/15 00:40:24;;;;;;;8.98;2.28;;;;;;;6.65;100.00;99635.47;5014634;28;20161;-60
2023/01/15 00:42:49;;;;;;;17.73;2.20;;;;;;;7.08;100.00;99705.41;5014183;28;20425;-62
2023/01/15 00:45:15;;;;;;;15.85;2.78;;;;;;;6.60;100.00;99621.69;5014077;28;20038;-60
2023/01/15 00:47:42;;;;;;;11.98;2.60;;;;;;;6.91;100.00;99677.25;5014155;28;20523;-62
2023/01/15 00:50:11;;;;;;;11.45;2.20;;;;;;;7.01;100.00;99680.38;5014143;28;20034;-60
2023/01/15 00:52:36;;;;;;;10.55;2.78;;;;;;;6.93;100.00;99688.50;5014418;28;20110;-59
2023/01/15 00:55:02;;;;;;;9.95;2.30;;;;;;;6.94;100.00;99679.75;4996509;28;20065;-60
2023/01/15 00:57:27;;;;;;;12.63;2.17;;;;;;;6.51;100.00;99620.25;5013490;28;20443;-62
2023/01/15 00:59:52;;;;;;;6.63;2.13;;;;;;;6.94;100.00;99689.38;5014187;28;20042;-61
2023/01/15 01:02:18;;;;;;;7.13;2.60;;;;;;;6.74;100.00;99667.38;5014131;28;20484;-62
2023/01/15 01:04:44;;;;;;;6.88;2.28;;;;;;;6.95;100.00;99696.28;5013748;28;20034;-62
2023/01/15 01:07:09;;;;;;;15.60;2.85;;;;;;;6.59;100.00;99651.38;5013939;28;20258;-63
2023/01/15 01:09:34;;;;;;;13.85;2.35;;;;;;;6.53;100.00;99636.78;5014152;28;20046;-63
2023/01/15 01:12:00;;;;;;;11.40;2.67;;;;;;;6.74;100.00;99677.00;5012855;28;20030;-61
2023/01/15 01:14:26;;;;;;;10.38;2.97;;;;;;;6.87;100.00;99699.19;5012441;28;20044;-62
2023/01/15 01:16:51;;;;;;;7.28;2.22;;;;;;;6.86;100.00;99705.31;5014012;28;20034;-60
2023/01/15 01:19:21;;;;;;;16.80;3.15;;;;;;;6.49;100.00;99629.94;5013788;28;20036;-60
2023/01/15 01:21:47;;;;;;;14.93;2.45;;;;;;;6.84;100.00;99696.69;5013960;28;20030;-61
2023/01/15 01:24:19;;;;;;;13.32;2.92;;;;;;;6.33;100.00;99620.94;4996227;28;20461;-62
2023/01/15 01:26:44;;;;;;;;;;;;;;;6.77;100.00;99695.19;5014218;28;20068;-59
2023/01/15 01:29:14;;;;;;;10.45;2.90;;;;;;;6.76;100.00;99688.25;4996126;28;19968;-60
2023/01/15 01:31:40;;;;;;;15.98;2.60;;;;;;;6.60;100.00;99680.06;5013545;28;20366;-63
2023/01/15 01:34:05;;;;;;;7.00;2.22;;;;;;;6.50;100.00;99646.47;5013436;28;20056;-60
2023/01/15 01:36:33;;;;;;;12.45;2.03;;;;;;;6.58;100.00;99676.66;5013618;28;20041;-62
2023/01/15 01:38:59;;;;;;;10.23;2.28;;;;;;;6.76;100.00;99696.09;5013423;28;20072;-62
2023/01/15 01:41:25;;;;;;;9.07;2.35;;;;;;;6.41;100.00;99639.81;4995548;28;20029;-59
2023/01/15 01:44:04;;;;;;;9.65;2.30;;;;;;;6.87;100.00;99719.25;5013304;28;20030;-63
2023/01/15 01:46:31;;;;;;;8.55;2.60;;;;;;;6.52;100.00;99652.50;5013882;28;20111;-61
2023/01/15 01:49:15;;;;;;;13.25;2.50;;;;;;;6.63;100.00;99666.91;5013073;28;20491;-60
2023/01/15 01:51:44;;;;;;;15.68;2.63;;;;;;;6.43;100.00;99652.81;4995692;28;20037;-61
2023/01/15 01:54:13;;;;;;;17.45;3.05;;;;;;;6.74;100.00;99680.44;5012995;28;20053;-61
2023/01/15 01:56:38;;;;;;;10.60;2.60;;;;;;;6.77;100.00;99711.72;5013105;28;20388;-62
2023/01/15 01:59:05;;;;;;;15.95;3.25;;;;;;;6.86;100.00;99722.78;4995175;28;20033;-63
2023/01/15 02:01:30;;;;;;;11.15;2.67;;;;;;;6.75;100.00;99702.22;4995355;28;20056;-62
2023/01/15 02:03:56;;;;;;;11.90;2.38;;;;;;;6.45;100.00;99641.38;5013258;28;20454;-60
2023/01/15 02:06:23;;;;;;;9.90;1.90;;;;;;;6.86;100.00;99707.09;5012678;28;20044;-60
2023/01/15 02:08:48;;;;;;;8.93;2.33;;;;;;;6.40;100.00;99632.84;4993299;28;20046;-61
2023/01/15 02:11:16;;;;;;;12.27;2.80;;;;;;;6.86;100.00;99699.25;5012785;28;20045;-62
2023/01/15 02:14:08;;;;;;;8.80;2.05;;;;;;;6.84;100.00;99707.13;4995075;28;20461;-61
2023/01/15 02:16:56;;;;;;;16.55;2.55;;;;;;;6.78;100.00;99699.50;5003269;28;20065;-62
2023/01/15 02:19:31;;;;;;;10.40;1.92;;;;;;;6.80;100.00;99703.78;4995091;28;20350;-61
2023/01/15 02:22:02;;;;;;;13.02;2.25;;;;;;;6.82;100.00;99690.66;4995116;28;20026;-62
2023/01/15 02:24:56;;;;;;;12.07;2.75;;;;;;;6.86;100.00;99707.94;5011302;28;20109;-61
2023/01/15 02:27:22;;;;;;;9.52;2.40;;;;;;;6.40;100.00;99622.41;5012554;28;20041;-61
2023/01/15 02:29:58;;;;;;;10.75;2.72;;;;;;;6.45;100.00;99632.72;4994910;28;20042;-61
2023/01/15 02:32:40;;;;;;;8.48;2.50;;;;;;;6.82;100.00;99700.25;4994780;28;20042;-60
2023/01/15 02:35:17;;;;;;;13.45;3.30;;;;;;;6.79;100.00;99707.31;5011192;28;20505;-59
2023/01/15 02:37:46;;;;;;;8.73;2.17;;;;;;;6.71;100.00;99688.41;5012361;28;20374;-60
2023/01/15 02:40:12;;;;;;;12.27;3.45;;;;;;;6.52;100.00;99681.25;4995048;28;20474;-59
2023/01/15 02:42:38;;;;;;;11.75;2.60;;;;;;;6.44;100.00;99678.03;5012242;28;20034;-60
2023/01/15 02:45:05;;;;;;;18.20;3.03;;;;;;;6.61;100.00;99704.47;4994508;28;20469;-60
2023/01/15 02:47:34;;;;;;;9.10;2.30;;;;;;;6.58;100.00;99708.03;4994668;28;20354;-65
2023/01/15 02:50:06;;;;;;;10.75;2.17;;;;;;;6.60;100.00;99710.59;4994737;28;20034;-59
2023/01/15 02:52:36;;;;;;;10.50;2.88;;;;;;;6.57;100.00;99703.72;4994798;28;20040;-61
2023/01/15 02:55:11;;;;;;;10.52;2.92;;;;;;;6.30;100.00;99630.63;4994464;28;20053;-61
2023/01/15 02:57:38;;;;;;;5.32;1.83;;;;;;;6.65;100.00;99716.53;4994235;28;20087;-60
2023/01/15 03:00:07;;;;;;;11.70;3.20;;;;;;;6.63;100.00;99706.13;4994411;28;20082;-58
2023/01/15 03:02:35;;;;;;;10.50;2.05;;;;;;;6.30;100.00;99635.84;4994363;28;20046;-62
2023/01/15 03:05:07;;;;;;;8.95;2.42;;;;;;;6.18;100.00;99605.75;4994401;28;20465;-62
2023/01/15 03:07:49;;;;;;;;;;;;;;;6.53;100.00;99681.22;5012120;28;20048;-61
2023/01/15 03:10:14;;;;;;;12.93;3.05;;;;;;;5.75;100.00;99554.06;5012241;28;20005;-60
2023/01/15 03:13:02;;;;;;;13.60;2.30;;;;;;;6.50;100.00;99685.69;5011806;28;20121;-62
2023/01/15 03:18:26;;;;;;;9.82;2.33;;;;;;;6.17;100.00;99619.72;5011768;28;20041;-58
2023/01/15 03:20:56;;;;;;;11.38;2.25;;;;;;;6.45;100.00;99683.22;4994083;28;20069;-58
2023/01/15 03:23:22;;;;;;;10.00;2.55;;;;;;;6.35;100.00;99667.91;5011904;28;20120;-60
2023/01/15 03:25:48;;;;;;;14.73;2.10;;;;;;;6.35;100.00;99666.16;4977424;28;20034;-60
2023/01/15 03:28:18;;;;;;;9.52;2.17;;;;;;;5.94;100.00;99603.97;4993905;28;20072;-58
2023/01/15 03:30:43;;;;;;;8.85;2.70;;;;;;;5.13;100.00;99490.88;5011893;28;20038;-63
2023/01/15 03:33:10;;;;;;;14.77;2.50;;;;;;;5.93;100.00;99592.66;5011770;28;20049;-60
2023/01/15 03:35:44;;;;;;;9.60;2.92;;;;;;;6.40;100.00;99692.97;4994055;28;20038;-60
2023/01/15 03:38:15;;;;;;;8.38;2.10;;;;;;;5.97;100.00;99596.03;5011513;28;20569;-61
2023/01/15 03:40:49;;;;;;;8.18;2.25;;;;;;;6.41;100.00;99681.63;5011500;28;20038;-57
2023/01/15 03:46:03;;;;;;;9.48;2.60;;;;;;;6.03;100.00;99599.31;5011579;28;20069;-59
2023/01/15 03:48:55;;;;;;;10.63;2.47;;;;;;;5.96;100.00;99579.50;5011451;28;20034;-60
2023/01/15 03:51:25;;;;;;;11.77;2.55;;;;;;;5.90;100.00;99569.25;4993812;28;20030;-61
2023/01/15 03:53:55;;;;;;;12.32;2.92;;;;;;;6.51;100.00;99675.16;5011762;28;20460;-62
2023/01/15 03:56:49;;;;;;;13.35;2.65;;;;;;;6.57;100.00;99672.34;4993933;28;20037;-58
2023/01/15 03:59:22;;;;;;;9.60;2.05;;;;;;;6.22;100.00;99608.22;5011430;28;20500;-60
2023/01/15 04:01:48;;;;;;;12.75;2.35;;;;;;;6.57;100.00;99677.56;5011281;28;20041;-61
2023/01/15 04:04:14;;;;;;;5.30;1.80;;;;;;;6.48;100.00;99654.34;4993781;28;20137;-61
2023/01/15 04:06:41;;;;;;;13.40;2.20;;;;;;;6.58;100.00;99662.75;5011087;28;20397;-61
2023/01/15 04:09:07;;;;;;;10.50;1.90;;;;;;;6.48;100.00;99656.13;4993361;28;20054;-59
2023/01/15 04:11:33;;;;;;;10.13;2.10;;;;;;;6.22;100.00;99628.25;4993652;28;20034;-60
2023/01/15 04:13:58;;;;;;;12.70;2.25;;;;;;;6.43;100.00;99677.19;5011347;28;20124;-58
2023/01/15 04:16:28;;;;;;;11.73;2.67;;;;;;;6.35;100.00;99673.13;5010950;28;20046;-61
2023/01/15 04:18:54;;;;;;;10.55;2.47;;;;;;;6.27;100.00;99664.69;4993669;28;20040;-58
2023/01/15 04:21:20;;;;;;;12.55;2.33;;;;;;;5.91;100.00;99599.69;5011359;28;20541;-59
2023/01/15 04:23:45;;;;;;;10.77;2.22;;;;;;;6.32;100.00;99654.94;4993538;28;20033;-62
2023/01/15 04:26:11;;;;;;;11.00;2.15;;;;;;;6.31;100.00;99661.91;5011015;28;20433;-60
2023/01/15 04:28:37;;;;;;;6.85;2.15;;;;;;;5.89;100.00;99598.91;4993416;28;20041;-58
2023/01/15 04:31:02;;;;;;;11.02;2.15;;;;;;;6.35;100.00;99676.59;5011014;28;20112;-55
2023/01/15 04:33:27;;;;;;;16.08;2.85;;;;;;;6.28;100.00;99643.72;5013467;28;20042;-58
2023/01/15 04:35:53;;;;;;;12.18;2.90;;;;;;;5.94;100.00;99590.91;5014741;28;20125;-55
2023/01/15 04:38:18;;;;;;;11.90;1.80;;;;;;;6.40;100.00;99672.06;5013442;28;20058;-56
2023/01/15 04:46:12;;;;;;;15.82;2.25;;;;;;;6.49;100.00;99661.28;5013925;28;20081;-56
2023/01/15 04:48:38;;;;;;;10.32;3.65;;;;;;;6.36;100.00;99654.78;5013950;28;20416;-58
2023/01/15 04:51:04;;;;;;;13.43;2.20;;;;;;;6.46;100.00;99656.19;4996526;28;20116;-53
2023/01/15 04:53:30;;;;;;;9.43;1.77;;;;;;;6.43;100.00;99681.56;5014590;28;20038;-56
2023/01/15 04:56:03;;;;;;;13.55;2.83;;;;;;;6.20;100.00;99635.31;4996586;28;20049;-55
2023/01/15 04:58:29;;;;;;;16.98;2.40;;;;;;;6.44;100.00;99668.44;5014714;28;20450;-56
2023/01/15 05:00:54;;;;;;;10.13;2.00;;;;;;;5.90;100.00;99586.69;5025196;28;20120;-56
2023/01/15 05:03:19;;;;;;;6.85;2.10;;;;;;;6.37;100.00;99668.69;5015578;28;20124;-53
2023/01/15 05:05:45;;;;;;;14.20;2.42;;;;;;;6.43;100.00;99687.66;5033587;28;20116;-57
2023/01/15 05:08:10;;;;;;;7.82;1.83;;;;;;;6.30;100.00;99667.22;5033120;28;20057;-56
2023/01/15 05:10:35;;;;;;;8.05;2.03;;;;;;;6.35;100.00;99684.44;5033118;28;20069;-55
2023/01/15 05:13:01;;;;;;;12.82;1.95;;;;;;;5.88;100.00;99596.34;5033941;28;20191;-55
2023/01/15 05:15:26;;;;;;;10.30;1.50;;;;;;;6.32;100.00;99663.63;5016014;28;20033;-57
2023/01/15 05:17:51;;;;;;;7.60;2.08;;;;;;;6.31;100.00;99680.22;5033464;28;20041;-57
2023/01/15 05:20:16;;;;;;;10.95;1.85;;;;;;;6.26;100.00;99673.44;5033720;28;20035;-54
2023/01/15 05:22:42;;;;;;;5.82;1.55;;;;;;;6.35;100.00;99678.34;5033408;28;20038;-57
2023/01/15 05:25:07;;;;;;;9.65;1.83;;;;;;;6.41;100.00;99686.84;5033458;28;20060;-55
2023/01/15 05:27:33;;;;;;;8.05;2.00;;;;;;;5.88;100.00;99588.50;5015596;28;20033;-58
2023/01/15 05:29:58;;;;;;;12.93;1.77;;;;;;;6.23;100.00;99672.63;5015596;28;20468;-58
2023/01/15 05:32:23;;;;;;;8.98;1.95;;;;;;;6.16;100.00;99665.91;5033542;28;20041;-57
2023/01/15 05:34:49;;;;;;;9.23;2.40;;;;;;;6.10;100.00;99650.41;5033208;28;20402;-58
2023/01/15 05:37:14;;;;;;;10.20;2.10;;;;;;;5.79;100.00;99593.97;5033288;28;20225;-58
2023/01/15 05:39:39;;;;;;;12.88;2.42;;;;;;;5.80;100.00;99601.78;5033251;28;20029;-57
2023/01/15 05:42:05;;;;;;;11.15;1.85;;;;;;;6.15;100.00;99668.56;5033189;28;20034;-59
2023/01/15 05:44:30;;;;;;;9.10;1.67;;;;;;;6.13;100.00;99668.59;5033096;28;20040;-57
2023/01/15 05:47:04;;;;;;;16.30;2.30;;;;;;;6.09;100.00;99674.84;5033080;28;20548;-58
2023/01/15 05:49:30;;;;;;;9.82;2.80;;;;;;;5.89;100.00;99651.13;5016128;28;20025;-57
2023/01/15 05:51:57;;;;;;;9.27;1.75;;;;;;;5.39;100.00;99583.97;5015400;28;20030;-56
2023/01/15 05:54:24;;;;;;;10.13;2.38;;;;;;;5.89;100.00;99668.56;5015199;28;20033;-58
2023/01/15 05:56:50;;;;;;;10.50;2.30;;;;;;;5.51;100.00;99607.09;5015260;28;20072;-56
2023/01/15 05:59:18;;;;;;;10.35;1.88;;;;;;;5.40;100.00;99609.19;5032898;28;20049;-54
2023/01/15 06:01:43;;;;;;;8.20;2.22;;;;;;;5.77;100.00;99671.53;5032901;28;20041;-54
2023/01/15 06:04:09;;;;;;;7.40;1.92;;;;;;;5.26;100.00;99596.53;5032639;28;20468;-56
2023/01/15 06:06:35;;;;;;;13.50;2.13;;;;;;;5.68;100.00;99675.28;5015048;28;20034;-59
2023/01/15 06:09:02;;;;;;;13.77;2.15;;;;;;;5.60;100.00;99666.84;5032450;28;20052;-54
2023/01/15 06:11:27;;;;;;;9.00;2.47;;;;;;;5.76;100.00;99686.34;5014888;28;20065;-55
2023/01/15 06:13:52;;;;;;;15.00;2.50;;;;;;;5.78;100.00;99684.53;5014837;28;20060;-58
2023/01/15 06:16:18;;;;;;;10.90;2.33;;;;;;;5.42;100.00;99621.28;5014840;28;20112;-57
2023/01/15 06:18:43;;;;;;;12.25;2.55;;;;;;;5.40;100.00;99606.56;5032675;28;20368;-57
2023/01/15 06:21:10;;;;;;;11.40;1.48;;;;;;;5.82;100.00;99683.53;5032476;28;20030;-55
2023/01/15 06:23:36;;;;;;;7.72;2.17;;;;;;;5.41;100.00;99614.34;5032377;28;20049;-58
2023/01/15 06:26:04;;;;;;;8.85;2.45;;;;;;;5.78;100.00;99701.97;5032068;28;20439;-57
2023/01/15 06:28:29;;;;;;;12.73;2.28;;;;;;;5.33;100.00;99615.47;5014688;28;20041;-56
2023/01/15 06:30:55;;;;;;;6.40;2.53;;;;;;;5.77;100.00;99693.28;5014445;28;20047;-56
2023/01/15 06:33:20;;;;;;;8.32;2.03;;;;;;;5.78;100.00;99674.06;5014552;28;20040;-57
2023/01/15 06:35:45;;;;;;;12.40;1.60;;;;;;;5.40;100.00;99619.63;5032239;28;20059;-58
2023/01/15 06:38:11;;;;;;;6.45;2.08;;;;;;;5.89;100.00;99699.91;5031984;28;20163;-53
2023/01/15 06:40:36;;;;;;;8.15;1.50;;;;;;;5.91;100.00;99680.66;5031976;28;20049;-56
2023/01/15 06:48:29;;;;;;;9.73;1.80;;;;;;;5.94;100.00;99671.88;5031899;28;20562;-55
2023/01/15 06:50:55;;;;;;;14.20;2.03;;;;;;;5.69;100.00;99625.59;5032173;28;20037;-56
2023/01/15 06:53:20;;;;;;;10.77;2.20;;;;;;;5.88;100.00;99645.94;5032164;28;20025;-55
2023/01/15 06:55:46;;;;;;;8.90;2.00;;;;;;;6.02;100.00;99677.69;5031004;28;20109;-56
2023/01/15 06:58:11;;;;;;;6.00;1.60;;;;;;;5.85;100.00;99657.34;5013965;28;20405;-52
2023/01/15 07:00:37;;;;;;;9.23;1.85;;;;;;;5.62;100.00;99624.13;5031395;28;20037;-57
2023/01/15 07:03:03;;;;;;;7.57;2.30;;;;;;;5.46;100.00;99591.56;5031770;28;20498;-54
2023/01/15 07:05:28;;;;;;;11.25;1.98;;;;;;;5.90;100.00;99660.66;5013964;28;20405;-56
2023/01/15 07:07:54;;;;;;;8.13;1.98;;;;;;;5.85;100.00;99667.81;5031182;28;20115;-57
2023/01/15 07:10:19;;;;;;;7.97;2.10;;;;;;;5.86;100.00;99682.56;5031529;28;20119;-55
2023/01/15 07:12:45;;;;;;;16.45;2.63;;;;;;;5.50;100.00;99605.38;5031302;28;20037;-57
2023/01/15 07:15:10;;;;;;;8.05;1.52;;;;;;;5.46;100.00;99596.78;5013807;28;20445;-57
2023/01/15 07:17:36;;;;;;;9.15;1.90;;;;;;;5.90;100.00;99665.88;5031336;28;20041;-58
2023/01/15 07:20:01;;;;;;;11.93;2.22;;;;;;;5.55;100.00;99596.47;5031245;28;20487;-51
2023/01/15 07:22:27;;;;;;;14.38;4.00;;;;;;;5.99;100.00;99657.75;5031405;28;20120;-54
2023/01/15 07:24:52;;;;;;;8.63;2.28;;;;;;;6.03;100.00;99651.53;5031243;28;20443;-52
2023/01/15 07:27:17;;;;;;;14.45;2.95;;;;;;;5.96;100.00;99649.16;5031311;28;20091;-54
2023/01/15 07:29:42;;;;;;;10.15;1.95;;;;;;;6.02;100.00;99664.63;5031504;28;20516;-55
2023/01/15 07:32:09;;;;;;;8.75;2.38;;;;;;;6.05;100.00;99651.47;5031024;28;20400;-55
2023/01/15 07:34:34;;;;;;;9.98;2.10;;;;;;;6.11;100.00;99652.13;5013337;28;20037;-54
2023/01/15 07:37:00;;;;;;;12.15;2.33;;;;;;;6.18;100.00;99639.72;5013769;28;20046;-55
2023/01/15 07:39:25;;;;;;;5.38;2.08;;;;;;;6.23;100.00;99640.44;5031373;28;20037;-57
2023/01/15 07:50:16;;;;;;;11.55;2.28;;;;;;;5.81;100.00;99573.94;5016308;28;20484;-56
2023/01/15 07:52:41;;;;;;;9.98;1.95;;;;;;;6.19;100.00;99668.41;5030557;28;20034;-56
2023/01/15 07:55:08;;;;;;;7.28;1.90;;;;;;;6.27;100.00;99656.84;5031101;28;20056;-55
2023/01/15 07:57:33;;;;;;;11.48;2.88;;;;;;;5.95;100.00;99600.47;5013541;28;20041;-56
2023/01/15 07:59:59;;;;;;;16.33;2.47;;;;;;;6.31;100.00;99648.00;5031038;28;20041;-58
2023/01/15 08:02:24;;;;;;;12.68;2.63;;;;;;;6.00;100.00;99588.94;5030566;28;20033;-55
2023/01/15 08:04:50;;;;;;;14.02;2.33;;;;;;;6.44;100.00;99662.38;5013143;28;20042;-55
2023/01/15 08:07:15;;;;;;;14.13;3.63;;;;;;;6.36;100.00;99638.25;5032653;28;20045;-56
2023/01/15 08:09:41;;;;;;;11.38;2.33;;;;;;;6.12;100.00;99585.94;5034280;28;20061;-58
2023/01/15 08:17:35;;;;;;;8.45;2.40;;;;;;;6.63;100.00;99643.38;5019555;28;20053;-56
2023/01/15 08:20:02;;;;;;;13.02;2.45;;;;;;;6.64;100.00;99670.38;5034551;28;20395;-56
2023/01/15 08:22:27;;;;;;;10.13;2.42;;;;;;;6.25;100.00;99596.78;5034363;28;20038;-54
2023/01/15 08:24:53;;;;;;;8.32;2.45;;;;;;;6.35;100.00;99606.03;5034408;28;20504;-60
2023/01/15 08:27:18;;;;;;;10.88;2.65;;;;;;;6.64;100.00;99657.28;5034592;28;20044;-57
2023/01/15 08:29:43;;;;;;;14.32;2.20;;;;;;;6.10;100.00;99587.72;5034709;28;20375;-55
2023/01/15 08:32:08;;;;;;;8.63;2.00;;;;;;;6.37;100.00;99661.72;5034608;28;20046;-55
2023/01/15 08:34:34;;;;;;;12.43;2.35;;;;;;;6.25;100.00;99643.00;5033849;28;20044;-57
2023/01/15 08:36:59;;;;;;;14.00;2.20;;;;;;;5.82;100.00;99566.03;5033902;28;20041;-56
2023/01/15 08:39:28;;;;;;;10.88;2.22;;;;;;;6.16;100.00;99623.22;5034392;28;20086;-56
2023/01/15 08:41:54;;;;;;;11.27;2.42;;;;;;;5.99;100.00;99596.81;5016191;28;20034;-54
2023/01/15 08:44:22;;;;;;;6.30;2.17;;;;;;;6.11;100.00;99597.28;5034388;28;20063;-56
2023/01/15 08:46:48;;;;;;;9.80;1.98;;;;;;;6.04;100.00;99589.72;5016744;28;20385;-56
2023/01/15 08:49:13;;;;;;;7.00;2.20;;;;;;;6.29;100.00;99629.75;5034203;28;20076;-56
2023/01/15 08:51:39;;;;;;;9.52;2.05;;;;;;;6.42;100.00;99646.72;5033933;28;20065;-58
2023/01/15 08:54:04;;;;;;;11.93;1.90;;;;;;;6.48;100.00;99671.81;5016541;28;20029;-58
2023/01/15 08:56:29;;;;;;;9.75;2.00;;;;;;;6.04;100.00;99592.31;5034193;28;20037;-55
2023/01/15 08:58:55;;;;;;;12.07;2.13;;;;;;;6.20;100.00;99601.34;5015903;28;20104;-54
2023/01/15 09:01:20;;;;;;;7.32;1.88;;;;;;;6.58;100.00;99652.28;5015908;28;20045;-56
2023/01/15 09:03:46;;;;;;;12.20;2.00;;;;;;;6.11;100.00;99567.69;5033879;28;20152;-54
2023/01/15 09:06:12;;;;;;;7.80;1.58;;;;;;;6.23;100.00;99591.63;4999844;28;20048;-58
2023/01/15 09:08:38;;;;;;;8.68;2.05;;;;;;;6.27;100.00;99581.06;5012659;28;20115;-57
2023/01/15 09:11:05;;;;;;;15.45;2.47;;;;;;;6.25;100.00;99570.66;5014577;28;20495;-54
2023/01/15 09:13:30;;;;;;;7.85;1.85;;;;;;;6.66;100.00;99660.69;5013885;28;20038;-60
2023/01/15 09:16:00;;;;;;;7.25;1.88;;;;;;;6.41;100.00;99597.97;5013949;28;20381;-53
2023/01/15 09:18:25;;;;;;;12.07;2.88;;;;;;;6.66;100.00;99645.88;5013401;28;20117;-57
2023/01/15 09:20:51;;;;;;;12.02;2.45;;;;;;;6.80;100.00;99645.38;5013731;28;20113;-56
2023/01/15 09:23:16;;;;;;;9.55;2.60;;;;;;;6.80;100.00;99659.31;5013908;28;20033;-55
2023/01/15 09:25:53;;;;;;;11.35;2.70;;;;;;;6.45;100.00;99604.78;5013767;28;20038;-55
2023/01/15 09:28:18;;;;;;;10.10;2.00;;;;;;;6.91;100.00;99653.72;5013732;28;20099;-54
2023/01/15 09:30:44;;;;;;;11.23;2.17;;;;;;;6.56;100.00;99602.69;5013519;28;20541;-59
2023/01/15 09:33:10;;;;;;;11.27;3.10;;;;;;;6.54;100.00;99578.31;5012196;28;20042;-58
2023/01/15 09:35:35;;;;;;;13.25;3.03;;;;;;;7.01;100.00;99639.38;5013757;28;20040;-57
2023/01/15 09:38:01;;;;;;;12.77;1.95;;;;;;;7.00;100.00;99642.06;5013268;28;20469;-57
2023/01/15 09:40:35;;;;;;;15.18;2.38;;;;;;;6.98;100.00;99638.63;5013513;28;20145;-52
2023/01/15 09:43:44;;;;;;;8.30;2.55;;;;;;;7.04;100.00;99644.50;5013456;28;20461;-56
2023/01/15 09:46:30;;;;;;;6.88;1.88;;;;;;;7.10;100.00;99643.41;5006200;28;20045;-57
2023/01/15 09:49:26;;;;;;;9.52;2.30;;;;;;;7.11;100.00;99645.97;5013171;28;20045;-61
2023/01/15 09:51:58;;;;;;;12.32;2.75;;;;;;;7.13;100.00;99652.00;5012097;28;20026;-57
2023/01/15 09:54:58;;;;;;;14.80;2.55;;;;;;;7.14;100.00;99660.72;5013678;28;20180;-56
2023/01/15 09:57:24;;;;;;;8.80;2.73;;;;;;;7.21;100.00;99664.78;4980339;28;20440;-56
2023/01/15 09:59:51;;;;;;;13.68;2.35;;;;;;;7.08;100.00;99634.78;5011921;28;20125;-54
2023/01/15 10:02:37;;;;;;;12.43;3.40;;;;;;;7.22;100.00;99669.97;5011509;28;20038;-52
2023/01/15 10:05:16;;;;;;;14.75;3.10;;;;;;;6.91;100.00;99601.41;5012261;28;20029;-61
2023/01/15 10:07:47;;;;;;;13.63;3.22;;;;;;;7.43;100.00;99683.19;5013104;28;20066;-57
2023/01/15 10:10:14;;;;;;;10.57;1.95;;;;;;;7.11;100.00;99604.13;5011567;28;20371;-56
2023/01/15 10:12:43;;;;;;;11.52;2.50;;;;;;;7.53;100.00;99614.69;5011331;28;20444;-57
2023/01/15 10:15:39;;;;;;;11.55;2.67;;;;;;;7.20;100.00;99605.53;5012864;28;20033;-55
2023/01/15 10:18:07;;;;;;;8.32;2.08;;;;;;;7.64;100.00;99688.47;5011264;28;20033;-60
2023/01/15 10:20:55;;;;;;;12.57;2.05;;;;;;;7.29;100.00;99568.53;5012497;28;20057;-58
2023/01/15 10:23:39;;;;;;;11.07;2.00;;;;;;;7.64;100.00;99680.59;5012764;28;20088;-52
2023/01/15 10:26:36;;;;;;;10.43;2.00;;;;;;;7.70;100.00;99682.13;5011551;28;20026;-54
2023/01/15 10:29:05;;;;;;;6.65;1.80;;;;;;;7.66;100.00;99699.72;5004694;28;20045;-55
2023/01/15 10:31:56;;;;;;;12.10;1.75;;;;;;;7.71;100.00;99710.00;5010407;28;20432;-55
2023/01/15 10:34:33;;;;;;;12.77;2.63;;;;;;;7.78;100.00;99686.16;5012367;28;20052;-54
2023/01/15 10:37:16;;;;;;;9.07;2.25;;;;;;;7.84;100.00;99695.53;5011861;28;20190;-55
2023/01/15 10:39:53;;;;;;;8.30;1.90;;;;;;;7.77;100.00;99700.16;5010812;28;20125;-56
2023/01/15 10:42:57;;;;;;;10.23;2.08;;;;;;;7.82;100.00;99715.72;5011382;28;20492;-55
2023/01/15 10:45:29;;;;;;;12.80;2.20;;;;;;;7.41;100.00;99648.34;5012278;28;20037;-57
2023/01/15 10:48:03;;;;;;;8.20;2.03;;;;;;;7.63;100.00;99691.97;5012206;28;20518;-55
2023/01/15 10:50:29;;;;;;;10.43;2.17;;;;;;;7.41;100.00;99674.53;5010845;28;20114;-55
2023/01/15 10:53:07;;;;;;;7.78;2.20;;;;;;;7.63;100.00;99694.59;5010096;28;20780;-54
2023/01/15 10:55:40;;;;;;;9.38;2.17;;;;;;;7.47;100.00;99675.16;5012119;28;20026;-54
2023/01/15 10:58:10;;;;;;;7.43;1.90;;;;;;;7.38;100.00;99664.19;5010834;28;20034;-55
2023/01/15 11:00:37;;;;;;;9.30;2.33;;;;;;;7.31;100.00;99638.22;5010841;28;20149;-54
2023/01/15 11:03:07;;;;;;;9.50;2.97;;;;;;;7.77;100.00;99715.00;5010906;28;20036;-55
2023/01/15 11:05:33;;;;;;;7.88;2.35;;;;;;;7.42;100.00;99647.41;5012290;28;20040;-56
2023/01/15 11:07:59;;;;;;;11.25;2.45;;;;;;;7.61;100.00;99661.53;5011506;28;20451;-55
2023/01/15 11:10:24;;;;;;;13.63;2.40;;;;;;;7.98;100.00;99708.06;4997652;28;20037;-58
2023/01/15 11:21:13;;;;;;;12.45;1.98;;;;;;;7.79;100.00;99642.47;5031444;28;20111;-55
2023/01/15 11:23:39;;;;;;;8.98;2.75;;;;;;;8.24;100.00;99700.88;5031435;28;20052;-53
2023/01/15 11:26:04;;;;;;;10.27;2.10;;;;;;;8.14;100.00;99651.53;5031087;28;20453;-57
2023/01/15 11:28:39;;;;;;;11.00;3.17;;;;;;;8.29;100.00;99667.47;5031557;28;20045;-55
2023/01/15 11:31:05;;;;;;;6.93;2.55;;;;;;;8.49;100.00;99683.22;5031466;28;20029;-56
2023/01/15 11:33:31;;;;;;;11.98;3.05;;;;;;;8.60;100.00;99697.69;5013589;28;20454;-54
2023/01/15 11:36:01;;;;;;;13.15;2.45;;;;;;;8.27;100.00;99626.50;5031308;28;20072;-57
2023/01/15 11:38:41;;;;;;;13.27;2.50;;;;;;;8.55;100.00;99694.41;5014021;28;20025;-57
2023/01/15 11:41:19;;;;;;;9.18;2.40;;;;;;;8.41;100.00;99682.72;5032213;28;20090;-55
2023/01/15 11:52:23;;;;;;;10.10;1.92;;;;;;;7.92;100.00;99623.56;5035647;28;20052;-56
2023/01/15 11:54:52;;;;;;;14.40;2.70;;;;;;;7.83;100.00;99623.94;5017454;28;20041;-55
2023/01/15 11:57:30;;;;;;;10.63;2.80;;;;;;;8.08;100.00;99673.59;5017386;28;20034;-51
2023/01/15 11:59:56;;;;;;;15.02;2.40;;;;;;;8.05;100.00;99701.69;5034912;28;20128;-53
2023/01/15 12:02:48;;;;;;;15.10;1.83;;;;;;;7.94;100.00;99699.47;5017207;28;20436;-57
2023/01/15 12:05:18;;;;;;;10.25;1.92;;;;;;;7.58;100.00;99644.19;5019075;28;20033;-53
2023/01/15 12:07:45;;;;;;;15.85;3.20;;;;;;;7.14;100.00;99582.22;5034980;28;20357;-54
2023/01/15 12:10:20;;;;;;;6.00;1.88;;;;;;;7.43;100.00;99633.44;5034884;28;20081;-54
2023/01/15 12:13:09;;;;;;;14.20;1.75;;;;;;;7.46;100.00;99652.50;5017630;28;20037;-54
2023/01/15 12:16:00;;;;;;;16.20;2.45;;;;;;;7.81;100.00;99685.19;5034700;28;20057;-50
2023/01/15 12:18:31;;;;;;;10.57;1.83;;;;;;;7.80;100.00;99700.03;5034471;28;20590;-52
2023/01/15 12:21:04;;;;;;;;;;;;;;;7.83;100.00;99699.06;5035314;28;20040;-53
2023/01/15 12:23:38;;;;;;;9.18;1.85;;;;;;;7.88;100.00;99725.94;5034643;28;19940;-56
2023/01/15 12:26:26;;;;;;;8.15;2.50;;;;;;;7.50;100.00;99640.16;5034311;28;20025;-53
2023/01/15 12:29:10;;;;;;;10.88;2.70;;;;;;;7.93;100.00;99701.28;5016484;28;20111;-52